Excellence — KTDP — position and weather

sailwx.info

Track history (hours):
 
Tides and Currents Weather Stations Pressure Air Temp Water Temp Dewpoint Dewpoint Depression Visibility Wind Speed Wind Dir Waves Ship Positions

Excellence

Owner: AJVS, INC, Seattle, WA. More information available from US FCC via Universal Licensing System and Coast Guard Vessel Documentation Center.

Last reported at 2016-Mar-13 02:33 UTC. Time now 2016-Apr-30 05:12 UTC.
Position N 47°37' W 122°23'.
Warning: this ship's position is 48 days out of date.

Length 112 m; draft 6 m.

Type: Other ship. MMSI: 338162000.

Date/timePositionNaut miles runAvg speedWind from/ knotsBaromVisibWave heightAir tempDewpointWater temp
2016-Mar-13 02:33N 47°37' W 122°23'8 7.8
2016-Mar-13 01:33N 47°45' W 122°27'1312.9
2016-Mar-13 00:33N 47°57' W 122°33'1313.5
2016-Mar-12 23:33N 48°09' W 122°43'1413.6
2016-Mar-12 22:33N 48°12' W 123°03'1312.9
2016-Mar-12 21:33N 48°13' W 123°23'1111.5
2016-Mar-12 20:33N 48°13' W 123°40'1211.7
2016-Mar-12 19:33N 48°14' W 123°57'3810.9
2016-Mar-12 16:05N 48°29' W 124°49'612.2
2016-Mar-12 15:33N 48°29' W 124°59'1211.7
2016-Mar-12 14:33N 48°31' W 125°17'1211.7
2016-Mar-12 13:33N 48°36' W 125°32'1111.5
2016-Mar-12 12:33N 48°41' W 125°48'1111.2
2016-Mar-12 11:33N 48°46' W 126°03'1110.8
2016-Mar-12 10:32N 48°52' W 126°17'1010.1
2016-Mar-12 09:33N 48°56' W 126°31'  
Track history (hours):
 
Tides and Currents Weather Stations Pressure Air Temp Water Temp Dewpoint Dewpoint Depression Visibility Wind Speed Wind Dir Waves Ship Positions

Excellence

Owner: AJVS, INC, Seattle, WA. More information available from US FCC via Universal Licensing System and Coast Guard Vessel Documentation Center.

Last reported at 2016-Mar-13 02:33 UTC. Time now 2016-Apr-30 05:12 UTC.
Position N 47°37' W 122°23'.
Warning: this ship's position is 48 days out of date.

Length 112 m; draft 6 m.

Type: Other ship. MMSI: 338162000.

Date/timePositionNaut miles runAvg speedWind from/ knotsBaromVisibWave heightAir tempDewpointWater temp
2016-Mar-13 02:33N 47°37' W 122°23'8 7.8
2016-Mar-13 01:33N 47°45' W 122°27'1312.9
2016-Mar-13 00:33N 47°57' W 122°33'1313.5
2016-Mar-12 23:33N 48°09' W 122°43'1413.6
2016-Mar-12 22:33N 48°12' W 123°03'1312.9
2016-Mar-12 21:33N 48°13' W 123°23'1111.5
2016-Mar-12 20:33N 48°13' W 123°40'1211.7
2016-Mar-12 19:33N 48°14' W 123°57'3810.9
2016-Mar-12 16:05N 48°29' W 124°49'612.2
2016-Mar-12 15:33N 48°29' W 124°59'1211.7
2016-Mar-12 14:33N 48°31' W 125°17'1211.7
2016-Mar-12 13:33N 48°36' W 125°32'1111.5
2016-Mar-12 12:33N 48°41' W 125°48'1111.2
2016-Mar-12 11:33N 48°46' W 126°03'1110.8
2016-Mar-12 10:32N 48°52' W 126°17'1010.1
2016-Mar-12 09:33N 48°56' W 126°31'  

Dump ship's entire track history